Flight Track Log - Related Links

Times and Time Zones

All times are in EDT time to prevent confusion due to time zone crossing. See the FDX916 flight status page for this flight to view local times or setup timezone preferences in your user account.

Time Position Orientation Groundspeed Altitude Reporting Facility
EDT Latitude Longitude Course Direction KTS MPH feet Rate Location/Type
Tue 04:47:59 PM 34.9833 -89.9833 234° Southwest 184 212 2,800  Level KMEM
Tue 04:49:11 PM 34.9333 -90.0667 234° Southwest 257 296 6,900 3,000 Climbing KMEM
Tue 04:50:53 PM 34.9300 -90.2203 269° West 307 353 11,500 2,481 Climbing Memphis Center
Tue 04:51:53 PM 34.9239 -90.3419 267° West 347 399 13,600 2,400 Climbing Memphis Center
Tue 04:52:53 PM 34.9133 -90.4889 265° West 384 442 16,300 2,700 Climbing Memphis Center
Tue 04:53:53 PM 34.9047 -90.6256 266° West 410 472 19,000 2,550 Climbing Memphis Center
Tue 04:54:53 PM 34.8981 -90.7747 267° West 429 494 21,400 2,200 Climbing Memphis Center
Tue 04:55:53 PM 34.8767 -90.9217 260° West 442 509 23,400 2,000 Climbing Memphis Center
Tue 04:56:53 PM 34.8508 -91.0708 258° West 449 517 25,400 2,350 Climbing Memphis Center
Tue 04:57:53 PM 34.7936 -91.2119 244° Southwest 456 525 28,100 2,400 Climbing Memphis Center
Tue 04:58:53 PM 34.7364 -91.3503 243° Southwest 461 531 30,200 2,350 Climbing Memphis Center
Tue 04:59:53 PM 34.6789 -91.4833 242° Southwest 461 531 32,800 2,100 Climbing Memphis Center
Tue 05:00:53 PM 34.6192 -91.6114 240° Southwest 441 507 34,400 1,500 Climbing Memphis Center
Tue 05:01:53 PM 34.5658 -91.7342 242° Southwest 423 487 35,800 1,500 Climbing Memphis Center
Tue 05:02:53 PM 34.5103 -91.8569 241° Southwest 418 481 37,400 1,100 Climbing Memphis Center
Tue 05:03:53 PM 34.4586 -91.9819 243° Southwest 418 481 38,000 300 Climbing Memphis Center
Tue 05:04:53 PM 34.4047 -92.1042 242° Southwest 412 474 38,000  Level Memphis Center
Tue 05:05:53 PM 34.3486 -92.2264 241° Southwest 412 474 38,000  Level Memphis Center
Tue 05:06:53 PM 34.2989 -92.3458 243° Southwest 412 474 38,000  Level Memphis Center
Tue 05:07:53 PM 34.2425 -92.4678 241° Southwest 412 474 38,000  Level Memphis Center
Tue 05:10:15 PM 34.1244 -92.7547 244° Southwest 403 464 38,000  Level Fort Worth Center
Tue 05:11:15 PM 34.0703 -92.8731 241° Southwest 403 464 38,000  Level Fort Worth Center
Tue 05:17:22 PM 33.7320 -93.6000 241° Southwest 410 472 38,000  Level FlightAware ADS-B
Tue 05:17:47 PM 33.7051 -93.6601 242° Southwest 411 473 38,000  Level FlightAware ADS-B
Tue 05:18:22 PM 33.6728 -93.7299 241° Southwest 412 474 38,000  Level FlightAware ADS-B
Tue 05:19:18 PM 33.6223 -93.8399 241° Southwest 412 474 38,000  Level FlightAware ADS-B
Tue 05:20:12 PM 33.5720 -93.9480 241° Southwest 412 474 38,000  Level FlightAware ADS-B
Tue 05:20:52 PM 33.5400 -94.0170 241° Southwest 412 474 38,000  Level FlightAware ADS-B
Tue 05:21:32 PM 33.5090 -94.0850 241° Southwest 412 474 38,000  Level FlightAware ADS-B
Tue 05:22:07 PM 33.4520 -94.1610 228° Southwest 413 475 38,000  Level FlightAware ADS-B
Tue 05:22:52 PM 33.4030 -94.2280 229° Southwest 413 475 38,000  Level FlightAware ADS-B
Tue 05:23:41 PM 33.3325 -94.3302 230° Southwest 412 474 38,000  Level FlightAware ADS-B
Tue 05:24:13 PM 33.2924 -94.3860 229° Southwest 412 474 38,000  Level FlightAware ADS-B
Tue 05:24:48 PM 33.2492 -94.4467 230° Southwest 413 475 38,000  Level FlightAware ADS-B
Tue 05:25:27 PM 33.2010 -94.5147 230° Southwest 414 476 38,000  Level FlightAware ADS-B
Tue 05:26:27 PM 33.1310 -94.6120 229° Southwest 413 475 38,000  Level FlightAware ADS-B
Tue 05:27:28 PM 33.0510 -94.7249 230° Southwest 414 476 38,000  Level FlightAware ADS-B
Tue 05:28:04 PM 33.0057 -94.7873 229° Southwest 414 476 38,000  Level FlightAware ADS-B
Tue 05:28:47 PM 32.9550 -94.8580 229° Southwest 414 476 38,000  Level FlightAware ADS-B
Tue 05:29:32 PM 32.9040 -94.9290 229° Southwest 414 476 38,000  Level FlightAware ADS-B
Tue 05:30:12 PM 32.8500 -95.0040 229° Southwest 414 476 38,000  Level FlightAware ADS-B
Tue 05:30:52 PM 32.8020 -95.0700 229° Southwest 415 478 38,000  Level FlightAware ADS-B
Tue 05:31:37 PM 32.7440 -95.1520 230° Southwest 416 479 38,000  Level FlightAware ADS-B
Tue 05:32:17 PM 32.6960 -95.2170 229° Southwest 416 479 38,000  Level FlightAware ADS-B
Tue 05:32:57 PM 32.6430 -95.2900 229° Southwest 416 479 38,000  Level FlightAware ADS-B
Tue 05:33:42 PM 32.5840 -95.3690 228° Southwest 416 479 38,000  Level FlightAware ADS-B
Tue 05:34:22 PM 32.5340 -95.4380 229° Southwest 418 481 38,000  Level FlightAware ADS-B
Tue 05:35:07 PM 32.4760 -95.5160 229° Southwest 418 481 38,000  Level FlightAware ADS-B
Tue 05:35:13 PM 32.4660 -95.5296 229° Southwest 418 481 38,000  Level FlightAware ADS-B
Tue 05:35:44 PM 32.4272 -95.5836 230° Southwest 419 482 38,000  Level FlightAware ADS-B
Tue 05:36:19 PM 32.3828 -95.6445 229° Southwest 419 482 38,000  Level FlightAware ADS-B
Tue 05:36:49 PM 32.3450 -95.6964 229° Southwest 420 483 38,000  Level FlightAware ADS-B
Tue 05:37:05 PM 32.3255 -95.7225 229° Southwest 420 483 38,000  Level FlightAware ADS-B
Tue 05:37:25 PM 32.2985 -95.7588 229° Southwest 420 483 38,000  Level FlightAware ADS-B
Tue 05:37:50 PM 32.2669 -95.8019 229° Southwest 420 483 38,000  Level FlightAware ADS-B
Tue 05:38:01 PM 32.2526 -95.8210 228° Southwest 420 483 38,000 162 Level FlightAware ADS-B
Tue 05:38:27 PM 32.2200 -95.8659 229° Southwest 418 481 38,100 194 Climbing FlightAware ADS-B
Tue 05:38:32 PM 32.2134 -95.8745 228° Southwest 418 481 38,100  Level FlightAware ADS-B
Tue 05:39:05 PM 32.1726 -95.9295 229° Southwest 418 481 38,100  Level FlightAware ADS-B
Tue 05:39:08 PM 32.1671 -95.9364 227° Southwest 418 481 38,100  Level FlightAware ADS-B
Tue 05:39:36 PM 32.1320 -95.9845 229° Southwest 419 482 38,100  Level FlightAware ADS-B
Tue 05:39:58 PM 32.1034 -96.0224 228° Southwest 418 481 38,100 -188 Level FlightAware ADS-B
Tue 05:40:08 PM 32.0911 -96.0396 230° Southwest 417 480 38,000 -167 Descending FlightAware ADS-B
Tue 05:40:34 PM 32.0581 -96.0840 229° Southwest 417 480 38,000  Level FlightAware ADS-B
Tue 05:40:41 PM 32.0486 -96.0960 227° Southwest 416 479 38,000  Level FlightAware ADS-B
Tue 05:41:06 PM 32.0174 -96.1383 229° Southwest 415 478 38,000  Level FlightAware ADS-B
Tue 05:41:13 PM 32.0098 -96.1487 229° Southwest 415 478 38,000  Level FlightAware ADS-B
Tue 05:41:36 PM 31.9793 -96.1894 229° Southwest 415 478 38,000  Level FlightAware ADS-B
Tue 05:41:43 PM 31.9702 -96.2012 228° Southwest 414 476 38,000  Level FlightAware ADS-B
Tue 05:42:13 PM 31.9319 -96.2521 228° Southwest 415 478 38,000  Level FlightAware ADS-B
Tue 05:42:15 PM 31.9299 -96.2555 235° Southwest 415 478 38,000  Level FlightAware ADS-B
Tue 05:42:43 PM 31.8937 -96.3028 228° Southwest 414 476 38,000  Level FlightAware ADS-B
Tue 05:42:45 PM 31.8920 -96.3063 240° Southwest 414 476 38,000  Level FlightAware ADS-B
Tue 05:43:14 PM 31.8553 -96.3553 229° Southwest 414 476 38,000  Level FlightAware ADS-B
Tue 05:43:15 PM 31.8534 -96.3570 217° Southwest 414 476 38,000  Level FlightAware ADS-B
Tue 05:43:44 PM 31.8167 -96.4062 229° Southwest 415 478 38,000  Level FlightAware ADS-B
Tue 05:43:48 PM 31.8122 -96.4130 232° Southwest 415 478 38,000  Level FlightAware ADS-B
Tue 05:44:15 PM 31.7792 -96.4571 229° Southwest 416 479 38,000  Level FlightAware ADS-B
Tue 05:44:22 PM 31.7687 -96.4707 228° Southwest 416 479 38,000  Level FlightAware ADS-B
Tue 05:44:46 PM 31.7396 -96.5098 229° Southwest 417 480 38,000  Level FlightAware ADS-B
Tue 05:44:56 PM 31.7254 -96.5286 228° Southwest 417 480 38,000  Level FlightAware ADS-B
Tue 05:45:16 PM 31.7000 -96.5625 229° Southwest 417 480 38,000 150 Level FlightAware ADS-B
Tue 05:45:36 PM 31.6745 -96.5963 228° Southwest 418 481 38,100 200 Climbing FlightAware ADS-B
Tue 05:45:46 PM 31.6609 -96.6133 227° Southwest 419 482 38,100 -200 Level FlightAware ADS-B
Tue 05:46:06 PM 31.6355 -96.6474 229° Southwest 420 483 38,000 -200 Descending FlightAware ADS-B
Tue 05:46:16 PM 31.6223 -96.6645 228° Southwest 420 483 38,000 188 Level FlightAware ADS-B
Tue 05:46:38 PM 31.5941 -96.7019 228° Southwest 419 482 38,100 214 Climbing FlightAware ADS-B
Tue 05:46:44 PM 31.5866 -96.7121 229° Southwest 419 482 38,100  Level FlightAware ADS-B
Tue 05:47:11 PM 31.5523 -96.7582 229° Southwest 419 482 38,100  Level FlightAware ADS-B
Tue 05:47:15 PM 31.5471 -96.7650 228° Southwest 419 482 38,100  Level FlightAware ADS-B
Tue 05:47:38 PM 31.5168 -96.8037 227° Southwest 418 481 38,100  Level FlightAware ADS-B
Tue 05:47:44 PM 31.5089 -96.8137 227° Southwest 418 481 38,100 -154 Level FlightAware ADS-B
Tue 05:48:17 PM 31.4666 -96.8694 228° Southwest 418 481 38,000 -115 Descending FlightAware ADS-B
Tue 05:48:36 PM 31.4421 -96.9014 228° Southwest 419 482 38,000  Level FlightAware ADS-B
Tue 05:48:47 PM 31.4276 -96.9200 228° Southwest 419 482 38,000  Level FlightAware ADS-B
Tue 05:49:08 PM 31.4004 -96.9555 228° Southwest 419 482 38,000  Level FlightAware ADS-B
Tue 05:49:22 PM 31.3829 -96.9791 229° Southwest 418 481 38,000  Level FlightAware ADS-B
Tue 05:49:56 PM 31.3388 -97.0366 228° Southwest 417 480 38,000  Level FlightAware ADS-B
Tue 05:50:17 PM 31.3133 -97.0704 229° Southwest 417 480 38,000  Level FlightAware ADS-B
Tue 05:50:32 PM 31.2940 -97.0958 228° Southwest 418 481 38,000  Level FlightAware ADS-B
Tue 05:50:47 PM 31.2730 -97.1229 228° Southwest 418 481 38,000  Level FlightAware ADS-B
Tue 05:51:02 PM 31.2544 -97.1482 229° Southwest 418 481 38,000  Level FlightAware ADS-B
Tue 05:51:07 PM 31.2480 -97.1566 228° Southwest 418 481 38,000  Level FlightAware ADS-B
Tue 05:51:10 PM 31.2438 -97.1616 226° Southwest 417 480 38,000  Level FlightAware ADS-B
Tue 05:51:19 PM 31.2316 -97.1759 225° Southwest 418 481 38,000  Level FlightAware ADS-B
Tue 05:51:26 PM 31.2209 -97.1861 219° Southwest 417 480 38,000  Level FlightAware ADS-B
Tue 05:51:31 PM 31.2129 -97.1928 216° Southwest 418 481 38,000  Level FlightAware ADS-B
Tue 05:51:45 PM 31.1900 -97.2099 213° Southwest 419 482 38,000  Level FlightAware ADS-B
Tue 05:51:57 PM 31.1696 -97.2223 207° Southwest 420 483 38,000  Level FlightAware ADS-B
Tue 05:52:05 PM 31.1554 -97.2292 203° Southwest 421 484 38,000  Level FlightAware ADS-B
Tue 05:52:31 PM 31.1065 -97.2482 198° South 422 486 38,000  Level FlightAware ADS-B
Tue 05:52:44 PM 31.0825 -97.2577 199° South 422 486 38,000  Level FlightAware ADS-B
Tue 05:53:01 PM 31.0518 -97.2701 199° South 423 487 38,000  Level FlightAware ADS-B
Tue 05:53:18 PM 31.0200 -97.2825 198° South 423 487 38,000  Level FlightAware ADS-B
Tue 05:53:33 PM 30.9922 -97.2935 199° South 424 488 38,000  Level FlightAware ADS-B
Tue 05:53:53 PM 30.9564 -97.3073 198° South 424 488 38,000  Level FlightAware ADS-B
Tue 05:54:06 PM 30.9303 -97.3174 198° South 425 489 38,000 -419 Level FlightAware ADS-B
Tue 05:54:36 PM 30.8741 -97.3394 199° South 426 490 37,700 -857 Descending FlightAware ADS-B
Tue 05:54:41 PM 30.8652 -97.3430 199° South 427 491 37,500 -2,400 Descending FlightAware ADS-B
Tue 05:55:06 PM 30.8179 -97.3614 198° South 421 484 36,500 -2,571 Descending FlightAware ADS-B
Tue 05:55:37 PM 30.7629 -97.3825 198° South 419 482 35,100 -2,833 Descending FlightAware ADS-B
Tue 05:55:42 PM 30.7513 -97.3869 198° South 418 481 34,800 -2,833 Descending FlightAware ADS-B
Tue 05:56:13 PM 30.6945 -97.4088 198° South 416 479 33,400 -2,806 Descending FlightAware ADS-B
Tue 05:56:44 PM 30.6384 -97.4301 198° South 413 475 31,900 -2,613 Descending FlightAware ADS-B
Tue 05:57:15 PM 30.5836 -97.4507 198° South 416 479 30,700 -2,323 Descending FlightAware ADS-B
Tue 05:57:46 PM 30.5246 -97.4731 198° South 418 481 29,500 -2,262 Descending FlightAware ADS-B
Tue 05:58:16 PM 30.4690 -97.4945 198° South 417 480 28,400 -2,262 Descending FlightAware ADS-B
Tue 05:58:47 PM 30.4128 -97.5165 199° South 412 474 27,200 -2,441 Descending FlightAware ADS-B
Tue 05:59:15 PM 30.3645 -97.5394 202° Southwest 407 468 26,000 -2,348 Descending FlightAware ADS-B
Tue 05:59:33 PM 30.3356 -97.5600 212° Southwest 405 466 25,400 -2,381 Descending FlightAware ADS-B
Tue 06:00:18 PM 30.2627 -97.6105 211° Southwest 403 464 23,500 -2,538 Descending FlightAware ADS-B
Tue 06:00:25 PM 30.2523 -97.6181 212° Southwest 405 466 23,200 -2,516 Descending FlightAware ADS-B
Tue 06:00:49 PM 30.2134 -97.6444 210° Southwest 399 459 22,200 -2,488 Descending FlightAware ADS-B
Tue 06:01:06 PM 30.1866 -97.6629 211° Southwest 397 457 21,500 -2,647 Descending FlightAware ADS-B
Tue 06:01:23 PM 30.1598 -97.6815 211° Southwest 397 457 20,700 -2,800 Descending FlightAware ADS-B
Tue 06:01:36 PM 30.1398 -97.6958 212° Southwest 395 455 20,100 -2,750 Descending FlightAware ADS-B
Tue 06:02:11 PM 30.0840 -97.7337 210° Southwest 394 453 18,500 -2,739 Descending FlightAware ADS-B
Tue 06:02:22 PM 30.0671 -97.7457 212° Southwest 392 451 18,000 -2,591 Descending FlightAware ADS-B
Tue 06:02:55 PM 30.0180 -97.7814 212° Southwest 370 426 16,600 -2,500 Descending FlightAware ADS-B
Tue 06:02:58 PM 30.0134 -97.7844 209° Southwest 394 453 16,500 -2,625 Descending FlightAware ADS-B
Tue 06:03:27 PM 29.9713 -97.8132 211° Southwest 370 426 15,200 -2,571 Descending FlightAware ADS-B
Tue 06:04:01 PM 29.9205 -97.8467 210° Southwest 364 419 13,800 -2,571 Descending FlightAware ADS-B
Tue 06:04:09 PM 29.9093 -97.8553 214° Southwest 361 415 13,400 -2,769 Descending FlightAware ADS-B
Tue 06:04:14 PM 29.9030 -97.8614 220° Southwest 359 413 13,200 -1,600 Descending FlightAware ADS-B
Tue 06:04:24 PM 29.8926 -97.8758 230° Southwest 361 415 13,000 -947 Descending FlightAware ADS-B
Tue 06:04:33 PM 29.8845 -97.8911 239° Southwest 369 425 12,900 -1,050 Descending FlightAware ADS-B
Tue 06:05:04 PM 29.8624 -97.9464 245° Southwest 369 425 12,300 -984 Descending FlightAware ADS-B
Tue 06:05:34 PM 29.8393 -97.9988 243° Southwest 365 420 11,900 -984 Descending FlightAware ADS-B
Tue 06:06:05 PM 29.8174 -98.0518 245° Southwest 346 398 11,300 -1,180 Descending FlightAware ADS-B
Tue 06:06:35 PM 29.7977 -98.1003 245° Southwest 321 369 10,700 -1,180 Descending FlightAware ADS-B
Tue 06:07:06 PM 29.7795 -98.1465 246° West 293 337 10,100 -1,125 Descending FlightAware ADS-B
Tue 06:07:23 PM 29.7693 -98.1698 243° Southwest 289 333 9,800 -1,125 Descending FlightAware ADS-B
Tue 06:07:38 PM 29.7601 -98.1896 242° Southwest 282 325 9,500 -1,313 Descending FlightAware ADS-B
Tue 06:07:55 PM 29.7493 -98.2120 241° Southwest 281 323 9,100 -1,455 Descending FlightAware ADS-B
Tue 06:08:11 PM 29.7397 -98.2332 242° Southwest 281 323 8,700 -1,500 Descending FlightAware ADS-B
Tue 06:08:27 PM 29.7307 -98.2548 244° Southwest 280 322 8,300 -1,313 Descending FlightAware ADS-B
Tue 06:08:43 PM 29.7228 -98.2751 246° West 277 319 8,000 -1,161 Descending FlightAware ADS-B
Tue 06:08:58 PM 29.7142 -98.2965 245° Southwest 276 318 7,700 -1,448 Descending FlightAware ADS-B
Tue 06:09:12 PM 29.7069 -98.3135 244° Southwest 274 315 7,300 -1,400 Descending FlightAware ADS-B
Tue 06:09:28 PM 29.6975 -98.3356 244° Southwest 271 312 7,000 -1,091 Descending FlightAware ADS-B
Tue 06:10:07 PM 29.6770 -98.3830 244° Southwest 263 303 6,300 -1,000 Descending FlightAware ADS-B
Tue 06:10:16 PM 29.6718 -98.3971 247° West 261 300 6,200 -462 Descending FlightAware ADS-B
Tue 06:10:33 PM 29.6633 -98.4174 244° Southwest 242 278 6,100 -143 Descending FlightAware ADS-B
Tue 06:10:58 PM 29.6531 -98.4457 247° West 236 272 6,100  Level FlightAware ADS-B
Tue 06:11:03 PM 29.6528 -98.4520 267° West 240 276 6,100  Level FlightAware ADS-B
Tue 06:11:08 PM 29.6534 -98.4584 276° West 243 280 6,100  Level FlightAware ADS-B
Tue 06:11:12 PM 29.6544 -98.4622 287° West 249 287 6,100  Level FlightAware ADS-B
Tue 06:11:15 PM 29.6562 -98.4671 293° West 250 288 6,100  Level FlightAware ADS-B
Tue 06:11:18 PM 29.6579 -98.4705 300° West 250 288 6,100 -1,125 Level FlightAware ADS-B
Tue 06:11:31 PM 29.6664 -98.4849 304° West 251 289 5,800 -1,355 Descending FlightAware ADS-B
Tue 06:11:49 PM 29.6789 -98.5047 306° West 255 293 5,400 -1,059 Descending FlightAware ADS-B
Tue 06:12:05 PM 29.6893 -98.5212 306° West 253 291 5,200 -581 Descending FlightAware ADS-B
Tue 06:12:20 PM 29.7001 -98.5389 305° West 253 291 5,100 -200 Descending FlightAware ADS-B
Tue 06:12:35 PM 29.7103 -98.5553 306° West 256 295 5,100  Level FlightAware ADS-B
Tue 06:12:51 PM 29.7209 -98.5718 306° West 253 291 5,100 -566 Level FlightAware ADS-B
Tue 06:13:28 PM 29.7474 -98.6135 306° West 256 295 4,600 -844 Descending FlightAware ADS-B
Tue 06:13:55 PM 29.7654 -98.6438 304° West 255 293 4,200 -698 Descending FlightAware ADS-B
Tue 06:14:11 PM 29.7751 -98.6613 303° West 244 281 4,100 -194 Descending FlightAware ADS-B
Tue 06:14:26 PM 29.7839 -98.6771 303° West 227 261 4,100  Level FlightAware ADS-B
Tue 06:14:41 PM 29.7922 -98.6914 304° West 205 236 4,100 182 Level FlightAware ADS-B
Tue 06:14:59 PM 29.8018 -98.7074 305° West 205 236 4,200  Climbing FlightAware ADS-B
Tue 06:15:15 PM 29.8102 -98.7219 304° West 204 235 4,100 -130 Descending FlightAware ADS-B
Tue 06:15:45 PM 29.8212 -98.7507 294° West 206 237 4,100  Level FlightAware ADS-B
Tue 06:16:37 PM 29.8000 -98.7890 237° Southwest 183 211 4,100  Level FlightAware ADS-B
Tue 06:17:58 PM 29.7482 -98.7493 146° Southeast 165 190 4,100  Level FlightAware ADS-B
Tue 06:18:04 PM 29.7457 -98.7452 125° Southeast 164 189 4,100  Level FlightAware ADS-B
Tue 06:18:14 PM 29.7408 -98.7394 134° Southeast 167 192 4,100  Level FlightAware ADS-B
Tue 06:18:22 PM 29.7361 -98.7339 135° Southeast 161 185 4,100  Level FlightAware ADS-B
Tue 06:18:34 PM 29.7294 -98.7267 137° Southeast 162 186 4,100 -621 Level FlightAware ADS-B
Tue 06:18:51 PM 29.7233 -98.7181 137° Southeast 164 189 3,800 -900 Descending Houston Center
Tue 06:19:34 PM 29.7008 -98.6903 133° Southeast 162 186 3,200 -677 Descending Houston Center
Tue 06:19:53 PM 29.6906 -98.6758 129° Southeast 164 189 3,100 -148 Descending Houston Center
Tue 06:20:55 PM 29.6603 -98.6367 132° Southeast 163 188 3,000 -56 Descending Houston Center
Tue 06:21:41 PM 29.6367 -98.6089 134° Southeast 166 191 3,000  Level Houston Center
Tue 06:21:57 PM 29.6272 -98.5942 126° Southeast 165 190 3,000 -295 Level Houston Center
Tue 06:22:42 PM 29.6058 -98.5692 135° Southeast 164 189 2,700 -571 Descending Houston Center
Tue 06:23:00 PM 29.5978 -98.5561 125° Southeast 161 185 2,400 -787 Descending Houston Center
Tue 06:23:43 PM 29.5772 -98.5319 134° Southeast 148 170 1,900 -774 Descending Houston Center
Tue 06:24:02 PM 29.5692 -98.5186 125° Southeast 149 171 1,600 -764 Descending Houston Center
Tue 06:24:38 PM 29.5533 -98.4986 132° Southeast 144 166 1,200 -677 Descending Houston Center
Tue 06:25:04 PM 29.5453 -98.4869 128° Southeast 145 167 900 -692 Descending Houston Center

Login

Don't have an account? Register now (free) for customized features, flight alerts, and more!